タシュケント の空港の天気 - METARとTAF

タシケント空港 ( UTTT / TAS ) - ウズベキスタン タシュケント
飛行場実況気象(Metar)
観測時間06/29 06:30 UZT (06/29 01:30 UTC)
風向・風速東 2m/s
視程10km以上
天気現象
なし
気温23℃
湿度44%
気圧1011hPa
METARUTTT 290130Z 10004KT CAVOK 23/10 Q1011 R08R/CLRD70 NOSIG
過去の天気等 Google飛行場航空写真 Wunderground天気予報

過去48時間のMETAR

飛行場予報(TAF)
発表時間: 6/29 04:00 UZT (6/28 23:00 UTC)
予報対象時間: 29日5時 UZT ~ 30日5時 UZT
風向・風速南東 5m/s 瞬間風速 10m/s
視程10km以上
少しの積乱雲 雲底高度 1,830m
全天の4割程度の雲 雲底高度 3,050m
TAF UTTT 282300Z 2900/2924 14010G20KT 9999 FEW060CB SCT100 TX35/2910Z